Nelsonville, Ohio
Current Conditions -  °F | °C
As of 8:15 PM on Wednesday 22 Oct 2014 (Local Time) from KUNI Reporting Station
Overcast Overcast  
Wind Chill: 46°   Ceiling: 2700
Heat Index: 49°   Visibility: 10mi
Dew Point: 40°   Wind: 7mph
Humidity: 70%   Direction: 320°NW
Pressure: 30.24"   Gusts: NA
Location:  39.46°N, 82.23°W
Report Text: KUNI 230015Z AUTO 32006KT 10SM OVC027 10/04 A3024 RMK AO2 T00950043
Loading
Personal Weather Stations






























Interactive Weather Map
Tropical Storm Tracking
New forecast layout! Learn more

10-Day Weather Forecast

Advertisements
Track Severe Weather on mobile